Time;durP1;ratioP1;P1;durP2;ratioP2;P2;SDS_P1;SDS_P2;PMS_P1;PMS_P2;Temp;Humidity;BMP_temperature;BMP_pressure;BME280_temperature;BME280_humidity;BME280_pressure;Samples;Min_cycle;Max_cycle;Signal;HPM_P1;HPM_P2
2023/12/22 00:00:20;;;;;;;3.80;1.80;;;3.30;99.90;;;;;;4974717;28;20456;-77
2023/12/22 00:02:45;;;;;;;1.70;0.98;;;3.90;99.90;;;;;;4974611;28;20033;-76
2023/12/22 00:05:11;;;;;;;1.00;0.35;;;4.10;99.90;;;;;;4973401;28;20034;-74
2023/12/22 00:07:37;;;;;;;0.65;0.20;;;4.60;99.90;;;;;;4973371;28;20027;-76
2023/12/22 00:10:02;;;;;;;0.10;0.05;;;5.10;99.90;;;;;;4977643;28;20113;-77
2023/12/22 00:12:28;;;;;;;1.10;0.30;;;5.20;99.90;;;;;;4978559;28;20485;-77
2023/12/22 00:14:54;;;;;;;0.28;0.10;;;5.20;99.90;;;;;;4977738;28;20429;-76
2023/12/22 00:17:19;;;;;;;2.30;1.17;;;5.20;99.90;;;;;;4977889;28;20027;-77
2023/12/22 00:19:45;;;;;;;0.73;0.70;;;5.40;99.90;;;;;;4978648;28;20069;-75
2023/12/22 00:22:11;;;;;;;2.45;1.75;;;5.10;99.90;;;;;;4978306;28;20103;-76
2023/12/22 00:24:36;;;;;;;1.30;0.82;;;5.10;99.90;;;;;;4978169;28;20015;-76
2023/12/22 00:27:03;;;;;;;1.17;0.63;;;5.10;99.90;;;;;;4978700;28;20485;-76
2023/12/22 00:29:28;;;;;;;0.57;0.40;;;4.80;99.90;;;;;;4976342;28;20023;-76
2023/12/22 00:31:55;;;;;;;0.75;0.55;;;4.70;99.90;;;;;;4978019;28;20023;-76
2023/12/22 00:34:22;;;;;;;0.82;0.30;;;4.50;99.90;;;;;;4977845;28;20397;-77
2023/12/22 00:36:47;;;;;;;0.10;0.10;;;4.50;99.90;;;;;;4977560;28;20023;-76
2023/12/22 00:39:13;;;;;;;0.10;0.10;;;4.70;99.90;;;;;;4976172;28;20030;-77
2023/12/22 00:41:38;;;;;;;0.00;0.00;;;5.00;99.90;;;;;;4976440;28;20122;-77
2023/12/22 00:44:04;;;;;;;0.10;0.10;;;5.10;99.90;;;;;;4977890;28;20023;-77
2023/12/22 00:46:30;;;;;;;0.47;0.10;;;5.30;99.90;;;;;;4977601;28;20076;-76
2023/12/22 00:48:55;;;;;;;0.00;0.00;;;5.40;99.90;;;;;;4977707;28;20031;-76
2023/12/22 00:51:21;;;;;;;0.35;0.35;;;5.40;99.90;;;;;;4977340;28;20033;-75
2023/12/22 00:53:47;;;;;;;0.00;0.00;;;5.40;99.90;;;;;;4975570;28;20039;-77
2023/12/22 00:56:13;;;;;;;0.10;0.00;;;5.50;99.90;;;;;;4976907;28;20110;-76
2023/12/22 00:58:39;;;;;;;0.10;0.10;;;5.40;99.90;;;;;;4976712;28;20102;-77
2023/12/22 01:01:05;;;;;;;0.00;0.00;;;5.60;99.90;;;;;;4976587;28;20069;-77
2023/12/22 01:03:31;;;;;;;0.03;0.03;;;5.30;99.90;;;;;;4976852;28;20035;-77
2023/12/22 01:05:56;;;;;;;0.10;0.10;;;5.30;99.90;;;;;;4975362;28;20023;-74
2023/12/22 01:08:22;;;;;;;0.10;0.10;;;5.30;99.90;;;;;;4976388;28;20053;-75
2023/12/22 01:10:47;;;;;;;0.70;0.20;;;5.10;99.90;;;;;;4975538;28;20030;-77
2023/12/22 01:13:13;;;;;;;0.10;0.10;;;5.00;99.90;;;;;;4976943;28;20038;-76
2023/12/22 01:15:39;;;;;;;0.00;0.00;;;5.20;99.90;;;;;;4976792;28;20022;-77
2023/12/22 01:18:05;;;;;;;0.00;0.00;;;5.10;99.90;;;;;;4976987;28;20019;-76
2023/12/22 01:20:30;;;;;;;0.00;0.00;;;5.30;99.90;;;;;;4974942;28;20019;-76
2023/12/22 01:22:56;;;;;;;0.00;0.00;;;5.80;99.90;;;;;;4976353;28;20027;-79
2023/12/22 01:25:22;;;;;;;0.00;0.00;;;5.90;99.90;;;;;;4977125;28;20029;-77
2023/12/22 01:27:48;;;;;;;0.00;0.00;;;6.10;99.90;;;;;;4975070;28;20478;-77
2023/12/22 01:30:14;;;;;;;0.10;0.10;;;6.10;99.90;;;;;;4977279;28;20401;-77
2023/12/22 01:32:40;;;;;;;0.00;0.00;;;6.20;99.90;;;;;;4977117;28;20038;-77
2023/12/22 01:35:09;;;;;;;0.00;0.00;;;6.30;99.90;;;;;;4977459;28;20034;-78
2023/12/22 01:37:37;;;;;;;0.00;0.00;;;6.10;99.90;;;;;;4976870;28;20019;-76
2023/12/22 01:40:03;;;;;;;0.00;0.00;;;6.00;99.90;;;;;;4975336;28;20030;-77
2023/12/22 01:42:29;;;;;;;0.00;0.00;;;6.10;99.90;;;;;;4975558;28;20026;-75
2023/12/22 01:44:55;;;;;;;0.00;0.00;;;6.20;99.90;;;;;;4976956;28;20444;-76
2023/12/22 01:47:20;;;;;;;0.10;0.10;;;6.40;99.90;;;;;;4976548;28;20055;-76
2023/12/22 01:49:47;;;;;;;0.28;0.10;;;6.60;99.90;;;;;;4976340;28;20034;-77
2023/12/22 01:52:13;;;;;;;0.10;0.10;;;6.70;99.90;;;;;;4975862;28;20039;-77
2023/12/22 01:54:38;;;;;;;0.00;0.00;;;6.80;99.90;;;;;;4976421;28;20035;-77
2023/12/22 01:57:05;;;;;;;0.52;0.10;;;6.70;99.90;;;;;;4974438;28;20035;-76
2023/12/22 01:59:34;;;;;;;0.45;0.20;;;6.70;99.90;;;;;;4975783;28;20082;-76
2023/12/22 02:02:03;;;;;;;0.00;0.00;;;6.70;99.90;;;;;;4975747;28;20609;-77
2023/12/22 02:04:30;;;;;;;0.00;0.00;;;6.60;99.90;;;;;;4975473;28;20019;-76
2023/12/22 02:06:58;;;;;;;0.05;0.05;;;6.50;99.90;;;;;;4975151;28;20030;-77
2023/12/22 02:09:24;;;;;;;0.50;0.05;;;6.40;99.90;;;;;;4975378;28;20031;-75
2023/12/22 02:11:49;;;;;;;0.00;0.00;;;6.30;99.90;;;;;;4975578;28;20512;-77
2023/12/22 02:14:15;;;;;;;0.00;0.00;;;6.20;99.90;;;;;;4975400;28;20022;-76
2023/12/22 02:16:51;;;;;;;0.50;0.50;;;6.10;99.90;;;;;;4974983;28;20035;-76
2023/12/22 02:19:38;;;;;;;0.10;0.10;;;6.20;99.90;;;;;;4976339;28;20047;-77
2023/12/22 02:22:07;;;;;;;0.10;0.00;;;6.10;99.90;;;;;;4974540;28;20382;-77
2023/12/22 02:24:34;;;;;;;0.30;0.20;;;6.10;99.90;;;;;;4975425;28;20119;-77
2023/12/22 02:27:05;;;;;;;0.00;0.00;;;6.10;99.90;;;;;;4976223;28;20053;-74
2023/12/22 02:29:35;;;;;;;0.08;0.00;;;5.90;99.90;;;;;;4975051;28;20121;-75
2023/12/22 02:32:05;;;;;;;0.08;0.00;;;5.90;99.90;;;;;;4975529;28;20023;-77
2023/12/22 02:34:35;;;;;;;0.22;0.10;;;5.90;99.90;;;;;;4975996;28;20646;-76
2023/12/22 02:37:02;;;;;;;0.10;0.00;;;5.80;99.90;;;;;;4973779;28;20062;-76
2023/12/22 02:39:28;;;;;;;2.17;0.10;;;6.00;99.90;;;;;;4975434;28;20477;-77
2023/12/22 02:41:54;;;;;;;0.00;0.00;;;5.70;99.90;;;;;;4975676;28;20019;-76
2023/12/22 02:44:20;;;;;;;0.93;0.00;;;5.70;99.90;;;;;;4976052;28;20042;-77
2023/12/22 02:46:46;;;;;;;0.00;0.00;;;5.60;99.90;;;;;;4974414;28;20505;-75
2023/12/22 02:49:13;;;;;;;0.73;0.10;;;5.50;99.90;;;;;;4974720;28;20027;-79
2023/12/22 02:51:38;;;;;;;0.20;0.10;;;5.50;99.90;;;;;;4974590;28;20042;-76
2023/12/22 02:54:04;;;;;;;0.05;0.03;;;5.40;99.90;;;;;;4975819;28;20412;-77
2023/12/22 02:56:30;;;;;;;0.10;0.10;;;5.40;99.90;;;;;;4975965;28;20026;-73
2023/12/22 02:58:55;;;;;;;0.28;0.10;;;5.10;99.90;;;;;;4975965;28;20023;-76
2023/12/22 03:01:21;;;;;;;0.00;0.00;;;5.20;99.90;;;;;;4975687;28;20054;-77
2023/12/22 03:03:46;;;;;;;0.52;0.17;;;5.00;99.90;;;;;;4974814;28;20027;-76
2023/12/22 03:06:12;;;;;;;0.00;0.00;;;4.90;99.90;;;;;;4974402;28;20473;-77
2023/12/22 03:08:38;;;;;;;1.23;0.10;;;5.00;99.90;;;;;;4975942;28;20022;-77
2023/12/22 03:11:03;;;;;;;0.10;0.10;;;4.90;99.90;;;;;;4976623;28;20058;-76
2023/12/22 03:13:29;;;;;;;0.10;0.00;;;4.70;99.90;;;;;;4974479;28;20026;-76
2023/12/22 03:15:54;;;;;;;0.10;0.10;;;4.70;99.90;;;;;;4975142;28;20042;-75
2023/12/22 03:18:20;;;;;;;0.00;0.00;;;4.50;99.90;;;;;;4974504;28;20109;-77
2023/12/22 03:20:45;;;;;;;0.13;0.00;;;4.50;99.90;;;;;;4975857;28;20022;-77
2023/12/22 03:23:11;;;;;;;0.00;0.00;;;4.70;99.90;;;;;;4977315;28;20061;-77
2023/12/22 03:25:37;;;;;;;0.00;0.00;;;4.30;99.90;;;;;;4976246;28;20027;-77
2023/12/22 03:28:02;;;;;;;0.05;0.05;;;4.30;99.90;;;;;;4974438;28;20023;-77
2023/12/22 03:30:28;;;;;;;0.30;0.13;;;4.30;99.90;;;;;;4975753;28;20023;-77
2023/12/22 03:32:54;;;;;;;0.20;0.20;;;4.30;99.90;;;;;;4974703;28;20442;-77
2023/12/22 03:35:19;;;;;;;0.40;0.40;;;5.00;99.90;;;;;;4974988;28;20023;-76
2023/12/22 03:37:45;;;;;;;0.30;0.30;;;4.20;99.90;;;;;;4974480;28;20481;-78
2023/12/22 03:40:11;;;;;;;0.10;0.10;;;4.20;99.90;;;;;;4973658;28;20031;-78
2023/12/22 03:42:37;;;;;;;0.70;0.22;;;4.10;99.90;;;;;;4975047;28;20046;-77
2023/12/22 03:45:03;;;;;;;0.20;0.10;;;4.00;99.90;;;;;;4977670;28;20532;-75
2023/12/22 03:47:28;;;;;;;0.10;0.10;;;3.90;99.90;;;;;;4978697;28;20540;-76
2023/12/22 03:49:54;;;;;;;0.00;0.00;;;3.90;99.90;;;;;;4978476;28;20030;-76
2023/12/22 03:52:19;;;;;;;0.00;0.00;;;3.70;99.90;;;;;;4978688;28;20134;-77
2023/12/22 03:54:45;;;;;;;0.32;0.10;;;3.70;99.90;;;;;;4978446;28;20078;-77
2023/12/22 03:57:11;;;;;;;0.10;0.10;;;3.60;99.90;;;;;;4978557;28;20031;-76
2023/12/22 03:59:36;;;;;;;0.10;0.10;;;3.70;99.90;;;;;;4979266;28;20037;-77
2023/12/22 04:02:02;;;;;;;2.85;0.40;;;3.90;99.90;;;;;;4978052;28;20029;-77
2023/12/22 04:04:28;;;;;;;0.20;0.20;;;3.80;99.90;;;;;;4978349;28;20058;-76
2023/12/22 04:06:54;;;;;;;0.20;0.20;;;4.00;99.90;;;;;;4978185;28;20034;-77
2023/12/22 04:09:19;;;;;;;0.93;0.30;;;4.10;99.90;;;;;;4977377;28;20030;-77
2023/12/22 04:11:45;;;;;;;1.58;0.10;;;4.20;99.90;;;;;;4978168;28;20037;-77
2023/12/22 04:14:11;;;;;;;0.03;0.03;;;4.20;99.90;;;;;;4978915;28;20034;-77
2023/12/22 04:16:38;;;;;;;0.15;0.10;;;4.20;99.90;;;;;;4976991;28;20098;-76
2023/12/22 04:19:03;;;;;;;0.30;0.25;;;4.20;99.90;;;;;;4977802;28;20473;-77
2023/12/22 04:21:29;;;;;;;0.10;0.10;;;4.10;99.90;;;;;;4977712;28;20039;-77
2023/12/22 04:23:55;;;;;;;0.80;0.10;;;4.30;99.90;;;;;;4979320;28;20023;-77
2023/12/22 04:26:20;;;;;;;0.00;0.00;;;3.90;99.90;;;;;;4977454;28;20074;-77
2023/12/22 04:28:46;;;;;;;0.03;0.03;;;3.70;99.90;;;;;;4978520;28;20030;-77
2023/12/22 04:31:11;;;;;;;0.10;0.10;;;4.00;99.90;;;;;;4978818;28;20062;-77
2023/12/22 04:33:37;;;;;;;0.22;0.05;;;3.60;99.90;;;;;;4978583;28;20046;-76
2023/12/22 04:36:03;;;;;;;0.00;0.00;;;3.60;99.90;;;;;;4979043;28;20121;-77
2023/12/22 04:38:28;;;;;;;0.10;0.10;;;3.60;99.90;;;;;;4978302;28;20027;-77
2023/12/22 04:40:54;;;;;;;0.22;0.05;;;3.70;99.90;;;;;;4978688;28;20022;-76
2023/12/22 04:43:20;;;;;;;0.15;0.15;;;3.80;99.90;;;;;;4975673;28;20029;-76
2023/12/22 04:45:45;;;;;;;0.10;0.10;;;3.90;99.90;;;;;;4976684;28;20094;-76
2023/12/22 04:48:11;;;;;;;0.00;0.00;;;4.80;99.90;;;;;;4975815;28;20375;-77
2023/12/22 04:50:36;;;;;;;0.52;0.10;;;4.50;99.90;;;;;;4976393;28;20031;-77
2023/12/22 04:53:02;;;;;;;0.10;0.10;;;4.60;99.90;;;;;;4977067;28;20043;-76
2023/12/22 04:55:28;;;;;;;0.15;0.10;;;4.80;99.90;;;;;;4976696;28;20025;-78
2023/12/22 04:57:53;;;;;;;0.00;0.00;;;4.80;99.90;;;;;;4976013;28;20034;-76
2023/12/22 05:00:19;;;;;;;0.30;0.03;;;4.80;99.90;;;;;;4977031;28;20022;-77
2023/12/22 05:02:45;;;;;;;0.30;0.30;;;4.60;99.90;;;;;;4975602;28;20042;-77
2023/12/22 05:05:11;;;;;;;0.28;0.28;;;4.50;99.90;;;;;;4975386;28;20029;-78
2023/12/22 05:07:37;;;;;;;0.30;0.30;;;4.60;99.90;;;;;;4977195;28;20060;-77
2023/12/22 05:10:03;;;;;;;0.40;0.40;;;4.60;99.90;;;;;;4975588;28;20031;-76
2023/12/22 05:12:29;;;;;;;0.55;0.20;;;4.50;99.90;;;;;;4979343;28;20054;-78
2023/12/22 05:14:54;;;;;;;0.50;0.28;;;4.50;99.90;;;;;;4978522;28;20096;-77
2023/12/22 05:17:20;;;;;;;0.93;0.50;;;4.50;99.90;;;;;;4976025;28;20026;-76
2023/12/22 05:19:45;;;;;;;10.20;3.75;;;4.50;99.90;;;;;;4975437;28;20477;-77
2023/12/22 05:22:11;;;;;;;4.07;2.50;;;4.30;99.90;;;;;;4976632;28;20015;-77
2023/12/22 05:24:40;;;;;;;16.75;6.30;;;4.30;99.90;;;;;;4975102;28;20011;-77
2023/12/22 05:27:05;;;;;;;3.55;2.17;;;4.30;99.90;;;;;;4975884;28;20522;-77
2023/12/22 05:29:31;;;;;;;1.60;1.50;;;4.10;99.90;;;;;;4975917;28;20039;-77
2023/12/22 05:31:56;;;;;;;1.15;0.63;;;4.00;99.90;;;;;;4975984;28;20037;-76
2023/12/22 05:34:22;;;;;;;0.20;0.20;;;4.40;99.90;;;;;;4975619;28;20110;-76
2023/12/22 05:36:48;;;;;;;1.10;0.20;;;3.90;99.90;;;;;;4975561;28;20489;-76
2023/12/22 05:39:14;;;;;;;0.30;0.30;;;3.90;99.90;;;;;;4976432;28;20026;-77
2023/12/22 05:41:39;;;;;;;0.17;0.17;;;4.20;99.90;;;;;;4975762;28;20155;-76
2023/12/22 05:44:06;;;;;;;0.20;0.20;;;3.90;99.90;;;;;;4975510;28;20018;-77
2023/12/22 05:46:36;;;;;;;0.00;0.00;;;3.90;99.90;;;;;;4975368;28;20030;-77
2023/12/22 05:49:02;;;;;;;1.75;0.20;;;4.30;99.90;;;;;;4975683;28;20291;-78
2023/12/22 05:51:28;;;;;;;0.08;0.08;;;3.90;99.90;;;;;;4975968;28;20412;-77
2023/12/22 05:53:54;;;;;;;0.45;0.13;;;3.90;99.90;;;;;;4975689;28;20034;-79
2023/12/22 05:56:20;;;;;;;2.17;0.22;;;3.80;99.90;;;;;;4974405;28;20035;-77
2023/12/22 05:58:46;;;;;;;0.10;0.10;;;3.80;99.90;;;;;;4975549;28;20050;-77
2023/12/22 06:01:19;;;;;;;0.10;0.00;;;3.90;99.90;;;;;;4975641;28;20019;-78
2023/12/22 06:03:45;;;;;;;1.00;0.10;;;3.80;99.90;;;;;;4975874;28;20026;-77
2023/12/22 06:06:11;;;;;;;0.52;0.20;;;3.80;99.90;;;;;;4974409;28;20568;-76
2023/12/22 06:08:38;;;;;;;1.88;0.47;;;3.80;99.90;;;;;;4974191;28;20069;-76
2023/12/22 06:11:04;;;;;;;0.45;0.20;;;3.70;99.90;;;;;;4974377;28;20023;-77
2023/12/22 06:13:29;;;;;;;0.25;0.25;;;3.70;99.90;;;;;;4972986;28;20651;-77
2023/12/22 06:15:55;;;;;;;0.55;0.40;;;3.70;99.90;;;;;;4972855;28;20030;-76
2023/12/22 06:18:20;;;;;;;1.00;1.00;;;3.60;99.90;;;;;;4972732;28;20370;-77
2023/12/22 06:20:46;;;;;;;0.60;0.60;;;3.60;99.90;;;;;;4974437;28;20030;-77
2023/12/22 06:23:11;;;;;;;0.60;0.60;;;3.60;99.90;;;;;;4974697;28;20023;-77
2023/12/22 06:25:37;;;;;;;0.25;0.25;;;3.60;99.90;;;;;;4973994;28;20019;-76
2023/12/22 06:28:03;;;;;;;1.73;0.32;;;3.50;99.90;;;;;;4972443;28;20038;-76
2023/12/22 06:30:30;;;;;;;1.60;1.00;;;3.40;99.90;;;;;;4974163;28;20027;-75
2023/12/22 06:32:55;;;;;;;0.40;0.40;;;3.30;99.90;;;;;;4974161;28;20113;-76
2023/12/22 06:35:23;;;;;;;1.23;0.60;;;3.30;99.90;;;;;;4973124;28;20030;-76
2023/12/22 06:37:49;;;;;;;0.77;0.52;;;3.30;99.90;;;;;;4973786;28;20477;-76
2023/12/22 06:40:15;;;;;;;1.27;0.40;;;3.40;99.90;;;;;;4973986;28;20042;-76
2023/12/22 06:42:41;;;;;;;1.08;0.15;;;4.10;99.90;;;;;;4974216;28;20027;-76
2023/12/22 06:45:07;;;;;;;0.90;0.30;;;4.20;99.90;;;;;;4973797;28;20050;-76
2023/12/22 06:47:33;;;;;;;0.30;0.30;;;4.30;99.90;;;;;;4972777;28;20066;-77
2023/12/22 06:49:59;;;;;;;0.25;0.15;;;4.50;99.90;;;;;;4974335;28;20030;-78
2023/12/22 06:52:24;;;;;;;0.20;0.10;;;4.70;99.90;;;;;;4972887;28;20118;-77
2023/12/22 06:54:50;;;;;;;0.10;0.10;;;4.80;99.90;;;;;;4974345;28;20115;-77
2023/12/22 06:57:16;;;;;;;0.20;0.20;;;4.80;99.90;;;;;;4973926;28;20031;-77
2023/12/22 06:59:42;;;;;;;0.10;0.10;;;5.00;99.90;;;;;;4974233;28;20027;-77
2023/12/22 07:02:08;;;;;;;1.02;0.10;;;5.10;99.90;;;;;;4974272;28;20502;-78
2023/12/22 07:04:34;;;;;;;0.35;0.22;;;5.20;99.90;;;;;;4974153;28;20045;-77
2023/12/22 07:07:00;;;;;;;0.45;0.13;;;5.20;99.90;;;;;;4974196;28;20389;-76
2023/12/22 07:09:28;;;;;;;0.20;0.20;;;5.20;99.90;;;;;;4973766;28;20029;-76
2023/12/22 07:11:54;;;;;;;0.30;0.20;;;5.30;99.90;;;;;;4974138;28;20508;-77
2023/12/22 07:14:20;;;;;;;0.30;0.10;;;5.30;99.90;;;;;;4974190;28;20382;-77
2023/12/22 07:16:45;;;;;;;0.17;0.17;;;5.30;99.90;;;;;;4974485;28;20022;-77
2023/12/22 07:19:14;;;;;;;0.10;0.10;;;5.70;99.90;;;;;;4977376;28;20365;-76
2023/12/22 07:21:40;;;;;;;0.20;0.20;;;5.40;99.90;;;;;;4977960;28;20504;-76
2023/12/22 07:24:07;;;;;;;1.80;0.45;;;5.40;99.90;;;;;;4978099;28;20023;-77
2023/12/22 07:26:32;;;;;;;0.10;0.10;;;5.40;99.90;;;;;;4977898;28;20029;-77
2023/12/22 07:28:58;;;;;;;0.13;0.13;;;5.50;99.90;;;;;;4976498;28;20469;-76
2023/12/22 07:31:24;;;;;;;0.20;0.00;;;5.50;99.90;;;;;;4976609;28;20524;-76
2023/12/22 07:33:50;;;;;;;0.17;0.10;;;5.50;99.90;;;;;;4977543;28;20050;-76
2023/12/22 07:36:18;;;;;;;0.38;0.30;;;5.50;99.90;;;;;;4977706;28;20027;-76
2023/12/22 07:38:43;;;;;;;0.68;0.40;;;5.50;99.90;;;;;;4976206;28;20177;-77
2023/12/22 07:41:09;;;;;;;0.25;0.22;;;5.50;99.90;;;;;;4977478;28;20054;-77
2023/12/22 07:43:35;;;;;;;1.05;0.47;;;5.60;99.90;;;;;;4977945;28;20169;-77
2023/12/22 07:46:01;;;;;;;0.80;0.20;;;5.50;99.90;;;;;;4977684;28;20505;-77
2023/12/22 07:48:26;;;;;;;0.45;0.10;;;5.50;99.90;;;;;;4977483;28;20062;-77
2023/12/22 07:50:52;;;;;;;0.10;0.10;;;5.90;99.90;;;;;;4978238;28;20045;-76
2023/12/22 07:53:17;;;;;;;0.40;0.40;;;5.40;99.90;;;;;;4978650;28;20082;-79
2023/12/22 07:55:44;;;;;;;0.85;0.55;;;5.40;99.90;;;;;;4978842;28;20031;-77
2023/12/22 07:58:09;;;;;;;0.75;0.75;;;5.30;99.90;;;;;;4979991;28;20098;-77
2023/12/22 08:00:36;;;;;;;0.38;0.38;;;5.40;99.90;;;;;;4977721;28;20474;-77
2023/12/22 08:03:02;;;;;;;2.40;0.93;;;5.30;99.90;;;;;;4979756;28;20031;-77
2023/12/22 08:05:29;;;;;;;2.60;1.75;;;5.20;99.90;;;;;;4978500;28;20437;-76
2023/12/22 08:07:55;;;;;;;0.28;0.28;;;5.40;99.90;;;;;;4978387;28;20066;-77
2023/12/22 08:10:21;;;;;;;0.68;0.32;;;5.70;99.90;;;;;;4979833;28;20031;-77
2023/12/22 08:12:46;;;;;;;0.20;0.20;;;5.60;99.90;;;;;;4978093;28;20034;-76
2023/12/22 08:15:12;;;;;;;0.20;0.20;;;5.50;99.90;;;;;;4979938;28;20027;-79
2023/12/22 08:17:45;;;;;;;0.20;0.20;;;5.40;99.90;;;;;;4976654;28;20117;-78
2023/12/22 08:20:15;;;;;;;0.32;0.30;;;5.40;99.90;;;;;;4977887;28;20027;-77
2023/12/22 08:22:41;;;;;;;0.20;0.20;;;5.40;99.90;;;;;;4982617;28;20029;-77
2023/12/22 08:25:07;;;;;;;0.45;0.28;;;5.40;99.90;;;;;;4975799;28;20023;-76
2023/12/22 08:27:33;;;;;;;0.17;0.17;;;5.50;99.90;;;;;;4979080;28;20378;-76
2023/12/22 08:29:58;;;;;;;0.65;0.65;;;5.50;99.90;;;;;;4978939;28;20082;-77
2023/12/22 08:32:24;;;;;;;0.30;0.20;;;5.50;99.90;;;;;;4977983;28;20504;-78
2023/12/22 08:34:50;;;;;;;0.55;0.28;;;5.60;99.90;;;;;;4979151;28;20106;-77
2023/12/22 08:37:15;;;;;;;0.60;0.60;;;5.70;99.90;;;;;;4978994;28;20031;-77
2023/12/22 08:39:41;;;;;;;0.40;0.40;;;5.60;99.90;;;;;;4979129;28;20030;-76
2023/12/22 08:42:06;;;;;;;0.77;0.70;;;5.60;99.90;;;;;;4979012;28;20038;-77
2023/12/22 08:44:32;;;;;;;1.33;1.02;;;5.60;99.90;;;;;;4978322;28;20023;-77
2023/12/22 08:46:57;;;;;;;1.17;1.08;;;5.60;99.90;;;;;;4978859;28;20099;-77
2023/12/22 08:49:23;;;;;;;0.47;0.40;;;5.60;99.90;;;;;;4978214;28;20027;-77
2023/12/22 08:51:49;;;;;;;0.40;0.40;;;5.60;99.90;;;;;;4979781;28;20090;-77
2023/12/22 08:54:15;;;;;;;2.55;0.88;;;5.60;99.90;;;;;;4938502;28;1118455;-76
2023/12/22 08:56:40;;;;;;;1.50;0.80;;;6.00;99.90;;;;;;4977863;28;20019;-76
2023/12/22 08:59:08;;;;;;;4.22;2.55;;;5.70;99.90;;;;;;4978255;28;20086;-77
2023/12/22 09:01:34;;;;;;;8.43;3.63;;;5.80;99.90;;;;;;4979367;28;20022;-76
2023/12/22 09:04:01;;;;;;;1.83;1.08;;;5.80;99.90;;;;;;4978748;28;20023;-77
2023/12/22 09:06:27;;;;;;;2.10;1.35;;;5.90;99.90;;;;;;4980410;28;20077;-77
2023/12/22 09:08:53;;;;;;;1.20;1.00;;;5.90;99.90;;;;;;4977731;28;20091;-77
2023/12/22 09:11:20;;;;;;;6.85;2.92;;;5.90;99.90;;;;;;4978880;28;20027;-77
2023/12/22 09:13:46;;;;;;;2.85;1.80;;;6.10;99.90;;;;;;4979071;28;20023;-77
2023/12/22 09:16:15;;;;;;;2.38;1.40;;;5.80;99.90;;;;;;4979247;28;20034;-76
2023/12/22 09:18:42;;;;;;;7.70;3.33;;;5.70;99.90;;;;;;4978405;28;20497;-78
2023/12/22 09:21:08;;;;;;;2.55;2.17;;;5.70;99.90;;;;;;4975836;28;20069;-77
2023/12/22 09:23:33;;;;;;;2.28;1.40;;;5.70;99.90;;;;;;4978021;28;20448;-78
2023/12/22 09:25:59;;;;;;;0.65;0.65;;;5.70;99.90;;;;;;4977530;28;20114;-78
2023/12/22 09:28:25;;;;;;;1.30;0.90;;;5.80;99.90;;;;;;4976752;28;20481;-77
2023/12/22 09:30:51;;;;;;;1.30;1.20;;;5.90;99.90;;;;;;4978954;28;20023;-77
2023/12/22 09:33:16;;;;;;;0.75;0.17;;;5.90;99.90;;;;;;4978929;28;20073;-77
2023/12/22 09:35:42;;;;;;;0.40;0.40;;;5.80;99.90;;;;;;4976518;28;20023;-76
2023/12/22 09:38:09;;;;;;;1.38;0.93;;;5.80;99.90;;;;;;4979863;28;20098;-76
2023/12/22 09:40:36;;;;;;;1.02;0.90;;;5.70;99.90;;;;;;4977315;28;20019;-79
2023/12/22 09:43:04;;;;;;;2.03;1.30;;;5.70;99.90;;;;;;4975259;28;20088;-77
2023/12/22 09:45:32;;;;;;;0.30;0.30;;;6.00;99.90;;;;;;4975855;28;20114;-77
2023/12/22 09:48:03;;;;;;;1.13;0.50;;;5.90;99.90;;;;;;4976965;28;20037;-76
2023/12/22 09:50:30;;;;;;;0.38;0.38;;;5.90;99.90;;;;;;4975975;28;20117;-77
2023/12/22 09:52:56;;;;;;;1.25;1.15;;;5.90;99.90;;;;;;4976568;28;20528;-77
2023/12/22 09:55:23;;;;;;;1.20;1.10;;;5.90;99.90;;;;;;4974981;28;20035;-78
2023/12/22 09:57:49;;;;;;;0.47;0.47;;;6.20;99.90;;;;;;4976660;28;20035;-77
2023/12/22 10:00:16;;;;;;;1.17;0.20;;;6.40;99.90;;;;;;4979105;28;20031;-78
2023/12/22 10:02:45;;;;;;;0.43;0.28;;;6.20;99.90;;;;;;4978803;28;20026;-77
2023/12/22 10:05:13;;;;;;;2.13;0.50;;;6.10;99.90;;;;;;4977223;28;20489;-77
2023/12/22 10:07:39;;;;;;;4.95;0.95;;;6.10;99.90;;;;;;4975667;28;20085;-77
2023/12/22 10:10:07;;;;;;;5.15;2.55;;;6.20;99.90;;;;;;4975412;28;20031;-77
2023/12/22 10:12:34;;;;;;;1.25;1.15;;;6.10;99.90;;;;;;4977632;28;20030;-78
2023/12/22 10:15:01;;;;;;;0.43;0.43;;;6.20;99.90;;;;;;4978803;28;20023;-78
2023/12/22 10:17:28;;;;;;;1.05;0.95;;;6.00;99.90;;;;;;4978035;28;20042;-77
2023/12/22 10:19:53;;;;;;;1.45;0.77;;;6.10;99.90;;;;;;4978551;28;20477;-77
2023/12/22 10:22:21;;;;;;;0.30;0.30;;;6.00;99.90;;;;;;4978949;28;20027;-77
2023/12/22 10:24:47;;;;;;;0.60;0.60;;;6.10;99.90;;;;;;4978332;28;20025;-77
2023/12/22 10:27:21;;;;;;;0.45;0.20;;;6.10;99.90;;;;;;4978146;28;20109;-76
2023/12/22 10:29:48;;;;;;;0.10;0.10;;;6.20;99.90;;;;;;4975784;28;20030;-78
2023/12/22 10:32:14;;;;;;;0.50;0.47;;;6.20;99.90;;;;;;4978232;28;20030;-77
2023/12/22 10:34:39;;;;;;;0.52;0.50;;;6.20;99.90;;;;;;4977452;28;20066;-77
2023/12/22 10:37:05;;;;;;;0.32;0.20;;;6.20;99.90;;;;;;4975544;28;20034;-78
2023/12/22 10:39:32;;;;;;;0.63;0.50;;;6.20;99.90;;;;;;4976692;28;20022;-76
2023/12/22 10:42:00;;;;;;;0.43;0.30;;;6.40;99.90;;;;;;4978280;28;20019;-78
2023/12/22 10:44:28;;;;;;;0.10;0.10;;;6.40;99.90;;;;;;4978997;28;20031;-77
2023/12/22 10:46:54;;;;;;;0.28;0.28;;;6.40;99.90;;;;;;4976815;28;20042;-77
2023/12/22 10:49:20;;;;;;;0.52;0.35;;;6.80;99.90;;;;;;4977121;28;20094;-77
2023/12/22 10:51:46;;;;;;;0.20;0.20;;;6.60;99.90;;;;;;4978916;28;20050;-78
2023/12/22 10:54:12;;;;;;;0.10;0.10;;;6.50;99.90;;;;;;4978650;28;20031;-79
2023/12/22 10:56:39;;;;;;;0.30;0.30;;;6.50;99.90;;;;;;4980417;28;20489;-77
2023/12/22 10:59:06;;;;;;;0.70;0.30;;;6.50;99.90;;;;;;4980130;28;20030;-76
2023/12/22 11:01:38;;;;;;;0.30;0.30;;;6.50;99.90;;;;;;4979958;28;20030;-78
2023/12/22 11:04:16;;;;;;;0.45;0.20;;;6.50;99.90;;;;;;4980792;28;20027;-77
2023/12/22 11:06:44;;;;;;;0.68;0.30;;;6.50;99.90;;;;;;4978332;28;20030;-78
2023/12/22 11:09:10;;;;;;;0.52;0.40;;;6.50;99.90;;;;;;4979435;28;20037;-78
2023/12/22 11:11:37;;;;;;;1.08;0.57;;;6.50;99.90;;;;;;4978748;28;20031;-79
2023/12/22 11:14:07;;;;;;;0.22;0.22;;;6.40;99.90;;;;;;4979646;28;20413;-77
2023/12/22 11:16:34;;;;;;;1.50;0.60;;;6.50;99.90;;;;;;4977065;28;20481;-79
2023/12/22 11:19:02;;;;;;;1.05;0.80;;;6.40;99.90;;;;;;4976474;28;20443;-78
2023/12/22 11:21:29;;;;;;;0.52;0.50;;;6.40;99.90;;;;;;4977369;28;20504;-78
2023/12/22 11:23:57;;;;;;;0.55;0.20;;;6.60;99.90;;;;;;4978589;28;20026;-78
2023/12/22 11:26:23;;;;;;;0.35;0.20;;;6.50;99.90;;;;;;4978227;28;20499;-77
2023/12/22 11:28:50;;;;;;;0.20;0.20;;;6.40;99.90;;;;;;4977978;28;20031;-78
2023/12/22 11:31:17;;;;;;;0.22;0.22;;;6.40;99.90;;;;;;4978776;28;20512;-77
2023/12/22 11:33:52;;;;;;;0.70;0.28;;;6.40;99.90;;;;;;4975397;28;20027;-77
2023/12/22 11:36:18;;;;;;;0.83;0.23;;;6.50;99.90;;;;;;4976881;28;20027;-77
2023/12/22 11:38:45;;;;;;;0.90;0.90;;;6.60;99.90;;;;;;4976061;28;20027;-78
2023/12/22 11:41:18;;;;;;;0.55;0.55;;;6.70;99.90;;;;;;4980246;28;20105;-77
2023/12/22 11:43:45;;;;;;;0.80;0.80;;;6.60;99.90;;;;;;4979586;28;20026;-77
2023/12/22 11:46:11;;;;;;;0.43;0.40;;;6.60;99.90;;;;;;4979329;28;20051;-78
2023/12/22 11:48:37;;;;;;;0.20;0.20;;;6.60;99.90;;;;;;4977496;28;20035;-77
2023/12/22 11:51:14;;;;;;;0.52;0.50;;;6.50;99.90;;;;;;4977162;28;20027;-77
2023/12/22 11:53:39;;;;;;;0.73;0.30;;;6.50;99.90;;;;;;4976789;28;20041;-77
2023/12/22 11:56:09;;;;;;;0.17;0.17;;;6.50;99.90;;;;;;4976429;28;20031;-77
2023/12/22 11:58:35;;;;;;;0.47;0.45;;;6.50;99.90;;;;;;4979475;28;20026;-80
2023/12/22 12:01:12;;;;;;;0.60;0.60;;;6.50;99.90;;;;;;4979523;28;20019;-78
2023/12/22 12:03:48;;;;;;;0.30;0.20;;;6.40;99.90;;;;;;4979738;28;20026;-78
2023/12/22 12:06:18;;;;;;;0.20;0.20;;;6.40;99.90;;;;;;4982982;28;20030;-76
2023/12/22 12:08:44;;;;;;;0.15;0.10;;;6.50;99.90;;;;;;4982765;28;20169;-76
2023/12/22 12:11:10;;;;;;;0.20;0.10;;;6.40;99.90;;;;;;4982049;28;20038;-78
2023/12/22 12:13:41;;;;;;;0.22;0.10;;;6.50;99.90;;;;;;4983152;28;20074;-77
2023/12/22 12:16:07;;;;;;;0.10;0.10;;;6.50;99.90;;;;;;4984038;28;20027;-77
2023/12/22 12:18:34;;;;;;;0.32;0.30;;;6.60;99.90;;;;;;4983332;28;20023;-77
2023/12/22 12:21:00;;;;;;;0.08;0.05;;;6.50;99.90;;;;;;4983370;28;20029;-78
2023/12/22 12:23:29;;;;;;;0.38;0.10;;;6.60;99.90;;;;;;4983475;28;20023;-78
2023/12/22 12:25:55;;;;;;;3.60;0.65;;;6.50;99.90;;;;;;4981668;28;20022;-77
2023/12/22 12:28:30;;;;;;;0.30;0.30;;;6.70;99.90;;;;;;4980557;28;20038;-78
2023/12/22 12:31:02;;;;;;;0.20;0.20;;;6.70;99.90;;;;;;4982848;28;20098;-78
2023/12/22 12:33:28;;;;;;;0.38;0.10;;;6.70;99.90;;;;;;4982625;28;20015;-77
2023/12/22 12:35:56;;;;;;;0.05;0.05;;;6.60;99.90;;;;;;4983524;28;20141;-78
2023/12/22 12:38:41;;;;;;;0.22;0.22;;;6.70;99.90;;;;;;4983725;28;20023;-78
2023/12/22 12:41:09;;;;;;;1.08;0.30;;;6.70;99.90;;;;;;4981462;28;20299;-78
2023/12/22 12:43:34;;;;;;;0.63;0.52;;;6.60;99.90;;;;;;4982618;28;20139;-78
2023/12/22 12:46:06;;;;;;;0.40;0.40;;;6.50;99.90;;;;;;4982022;28;20366;-77
2023/12/22 12:48:32;;;;;;;0.20;0.03;;;6.50;99.90;;;;;;4981061;28;20495;-78
2023/12/22 12:51:07;;;;;;;0.75;0.40;;;6.40;99.90;;;;;;4982287;28;20031;-78
2023/12/22 12:53:35;;;;;;;0.20;0.15;;;6.30;99.90;;;;;;4982435;28;20035;-77